createdAt,value
2019-04-16T00:02:28.105Z,7.00
2019-04-16T00:05:09.892Z,7.00
2019-04-16T00:07:56.483Z,7.00
2019-04-16T00:10:52.087Z,7.00
2019-04-16T00:13:34.769Z,6.90
2019-04-16T00:16:05.433Z,6.90
2019-04-16T00:18:35.875Z,6.90
2019-04-16T00:21:25.138Z,6.80
2019-04-16T00:24:18.516Z,6.70
2019-04-16T00:26:52.509Z,6.60
2019-04-16T00:29:22.908Z,6.60
2019-04-16T00:32:00.284Z,6.60
2019-04-16T00:34:30.699Z,6.60
2019-04-16T00:37:01.236Z,6.60
2019-04-16T00:39:31.632Z,6.60
2019-04-16T00:42:02.075Z,6.60
2019-04-16T00:44:32.510Z,6.60
2019-04-16T00:47:02.951Z,6.60
2019-04-16T00:49:33.405Z,6.60
2019-04-16T00:52:06.676Z,6.50
2019-04-16T00:54:36.078Z,6.50
2019-04-16T00:57:06.657Z,6.50
2019-04-16T00:59:37.122Z,6.40
2019-04-16T01:02:26.747Z,6.40
2019-04-16T01:04:57.135Z,6.40
2019-04-16T01:07:27.536Z,6.40
2019-04-16T01:09:58.002Z,6.30
2019-04-16T01:12:28.500Z,6.30
2019-04-16T01:15:00.563Z,6.40
2019-04-16T01:17:33.402Z,6.30
2019-04-16T01:20:03.096Z,6.30
2019-04-16T01:22:33.490Z,6.40
2019-04-16T01:25:03.921Z,6.40
2019-04-16T01:27:37.740Z,6.30
2019-04-16T01:30:10.148Z,6.30
2019-04-16T01:33:05.823Z,6.30
2019-04-16T01:35:55.352Z,6.30
2019-04-16T01:38:49.565Z,6.30
2019-04-16T01:41:21.950Z,6.30
2019-04-16T01:43:54.352Z,6.30
2019-04-16T01:46:24.391Z,6.30
2019-04-16T01:48:54.683Z,6.20
2019-04-16T01:51:25.164Z,6.20
2019-04-16T01:53:55.593Z,6.10
2019-04-16T01:56:28.849Z,6.10
2019-04-16T01:58:58.183Z,6.00
2019-04-16T02:01:28.627Z,6.00
2019-04-16T02:03:59.095Z,6.00
2019-04-16T02:06:29.585Z,6.00
2019-04-16T02:09:02.775Z,5.80
2019-04-16T02:11:32.080Z,5.80
2019-04-16T02:14:02.691Z,5.90
2019-04-16T02:16:33.179Z,5.90
2019-04-16T02:19:03.652Z,5.80
2019-04-16T02:21:34.095Z,5.70
2019-04-16T02:24:04.588Z,5.60
2019-04-16T02:26:34.936Z,5.60
2019-04-16T02:29:05.485Z,5.50
2019-04-16T02:31:35.892Z,5.50
2019-04-16T02:34:06.622Z,5.40
2019-04-16T02:36:37.072Z,5.40
2019-04-16T02:39:09.976Z,5.40
2019-04-16T02:41:40.236Z,5.40
2019-04-16T02:44:14.029Z,5.30
2019-04-16T02:46:42.793Z,5.30
2019-04-16T02:49:13.141Z,5.20
2019-04-16T02:52:05.502Z,5.20
2019-04-16T02:54:49.861Z,5.30
2019-04-16T02:57:59.588Z,5.30
2019-04-16T03:00:35.520Z,5.30
2019-04-16T03:03:12.297Z,5.30
2019-04-16T03:05:45.866Z,5.30
2019-04-16T03:08:16.198Z,5.40
2019-04-16T03:10:46.783Z,5.40
2019-04-16T03:13:17.084Z,5.40
2019-04-16T03:15:59.195Z,5.40
2019-04-16T03:18:37.831Z,5.40
2019-04-16T03:21:08.291Z,5.40
2019-04-16T03:23:38.791Z,5.40
2019-04-16T03:26:09.218Z,5.30
2019-04-16T03:28:39.540Z,5.20
2019-04-16T03:31:20.273Z,5.10
2019-04-16T03:33:48.548Z,5.10
2019-04-16T03:36:14.306Z,5.10
2019-04-16T03:38:44.807Z,5.10
2019-04-16T03:41:15.272Z,5.00
2019-04-16T03:43:45.821Z,5.00
2019-04-16T03:46:16.374Z,5.10
2019-04-16T03:48:46.679Z,5.00
2019-04-16T03:51:17.262Z,5.00
2019-04-16T03:53:49.736Z,4.90
2019-04-16T03:56:19.783Z,4.80
2019-04-16T03:58:50.255Z,4.70
2019-04-16T04:01:20.627Z,4.80
2019-04-16T04:03:50.906Z,4.80
2019-04-16T04:06:21.336Z,4.90
2019-04-16T04:08:53.297Z,4.90
2019-04-16T04:11:23.873Z,4.90
2019-04-16T04:13:54.230Z,4.80
2019-04-16T04:16:24.668Z,4.80
2019-04-16T04:18:55.105Z,4.80
2019-04-16T04:21:25.593Z,4.70
2019-04-16T04:23:57.568Z,4.80
2019-04-16T04:26:28.186Z,4.70
2019-04-16T04:28:58.661Z,4.70
2019-04-16T04:31:32.091Z,4.70
2019-04-16T04:34:01.225Z,4.70
2019-04-16T04:36:31.682Z,4.70
2019-04-16T04:39:02.099Z,4.60
2019-04-16T04:41:32.478Z,4.60
2019-04-16T04:44:04.444Z,4.50
2019-04-16T04:46:35.022Z,4.60
2019-04-16T04:49:05.411Z,4.60
2019-04-16T04:51:36.870Z,4.60
2019-04-16T04:54:07.902Z,4.80
2019-04-16T04:56:38.355Z,4.80
2019-04-16T04:59:08.734Z,4.90
2019-04-16T05:01:42.079Z,5.00
2019-04-16T05:04:26.994Z,5.00
2019-04-16T05:07:00.134Z,5.00
2019-04-16T05:09:35.538Z,5.10
2019-04-16T05:12:02.631Z,5.10
2019-04-16T05:14:33.067Z,5.20
2019-04-16T05:17:15.450Z,5.30
2019-04-16T05:19:45.849Z,5.40
2019-04-16T05:22:20.596Z,5.40
2019-04-16T05:24:48.389Z,5.60
2019-04-16T05:27:18.833Z,5.60
2019-04-16T05:29:49.675Z,5.70
2019-04-16T05:32:20.048Z,5.80
2019-04-16T05:34:50.533Z,5.80
2019-04-16T05:37:21.319Z,6.00
2019-04-16T05:39:51.701Z,6.10
2019-04-16T05:42:25.243Z,6.10
2019-04-16T05:44:54.411Z,6.20
2019-04-16T05:47:25.137Z,6.30
2019-04-16T05:49:58.066Z,6.50
2019-04-16T05:52:27.756Z,6.50
2019-04-16T05:55:06.878Z,6.60
2019-04-16T05:57:39.353Z,6.70
2019-04-16T06:00:20.625Z,6.80
2019-04-16T06:02:51.027Z,7.00
2019-04-16T06:05:21.709Z,7.10
2019-04-16T06:07:55.161Z,7.30
2019-04-16T06:10:25.490Z,7.40
2019-04-16T06:13:12.682Z,7.50
2019-04-16T06:16:00.987Z,7.60
2019-04-16T06:18:44.224Z,7.80
2019-04-16T06:21:31.012Z,7.80
2019-04-16T06:24:11.498Z,7.90
2019-04-16T06:27:00.847Z,7.80
2019-04-16T06:29:53.206Z,7.60
2019-04-16T06:32:42.845Z,7.80
2019-04-16T06:35:43.582Z,7.90
2019-04-16T06:38:35.188Z,7.90
2019-04-16T06:41:10.616Z,7.80
2019-04-16T06:43:47.605Z,7.90
2019-04-16T06:46:34.103Z,8.10
2019-04-16T06:49:22.408Z,8.20
2019-04-16T06:52:18.104Z,8.20
2019-04-16T06:55:00.483Z,8.30
2019-04-16T06:58:03.282Z,8.30
2019-04-16T07:00:52.617Z,8.50
2019-04-16T07:03:41.901Z,8.80
2019-04-16T07:06:29.793Z,9.20
2019-04-16T07:09:23.300Z,9.40
2019-04-16T07:11:54.492Z,9.60
2019-04-16T07:14:24.045Z,9.90
2019-04-16T07:16:59.837Z,10.00
2019-04-16T07:19:26.816Z,10.30
2019-04-16T07:21:57.302Z,10.80
2019-04-16T07:24:30.778Z,11.10
2019-04-16T07:27:00.128Z,11.50
2019-04-16T07:29:34.324Z,11.90
2019-04-16T07:32:22.222Z,12.20
2019-04-16T07:35:09.808Z,12.10
2019-04-16T07:37:55.794Z,12.30
2019-04-16T07:41:03.439Z,12.60
2019-04-16T07:43:41.392Z,12.80
2019-04-16T07:46:47.048Z,13.20
2019-04-16T07:49:48.733Z,13.50
2019-04-16T07:52:44.026Z,13.10
2019-04-16T07:55:23.627Z,13.90
2019-04-16T07:57:53.495Z,13.80
2019-04-16T08:00:24.188Z,13.90
2019-04-16T08:02:54.822Z,14.50
2019-04-16T08:05:27.886Z,14.30
2019-04-16T08:07:57.445Z,14.40
2019-04-16T08:10:27.843Z,15.10
2019-04-16T08:13:06.849Z,15.20
2019-04-16T08:15:37.318Z,15.30
2019-04-16T08:18:10.887Z,15.20
2019-04-16T08:20:41.331Z,16.20
2019-04-16T08:23:29.267Z,16.60
2019-04-16T08:26:03.955Z,16.50
2019-04-16T08:28:32.500Z,16.50
2019-04-16T08:31:03.987Z,15.90
2019-04-16T08:33:34.263Z,16.70
2019-04-16T08:36:04.660Z,16.90
2019-04-16T08:38:35.149Z,16.60
2019-04-16T08:41:05.692Z,16.60
2019-04-16T08:43:36.100Z,16.80
2019-04-16T08:46:10.237Z,17.20
2019-04-16T08:48:38.909Z,17.40
2019-04-16T08:51:09.356Z,16.90
2019-04-16T08:53:39.821Z,16.00
2019-04-16T08:56:10.250Z,16.70
2019-04-16T08:58:40.604Z,16.40
2019-04-16T09:01:15.455Z,16.60
2019-04-16T09:03:45.138Z,16.70
2019-04-16T09:06:15.578Z,17.30
2019-04-16T09:09:14.453Z,17.90
2019-04-16T09:11:42.522Z,18.90
2019-04-16T09:14:13.022Z,19.80
2019-04-16T09:17:02.339Z,19.70
2019-04-16T09:19:32.923Z,19.60
2019-04-16T09:22:03.534Z,19.50
2019-04-16T09:24:41.388Z,20.10
2019-04-16T09:27:28.734Z,20.30
2019-04-16T09:30:18.141Z,20.70
2019-04-16T09:33:16.479Z,20.20
2019-04-16T09:36:08.783Z,19.30
2019-04-16T09:38:47.648Z,20.10
2019-04-16T09:41:43.040Z,21.30
2019-04-16T09:44:13.476Z,21.50
2019-04-16T09:46:51.255Z,21.80
2019-04-16T09:49:16.099Z,21.80
2019-04-16T09:51:46.474Z,21.40
2019-04-16T09:54:16.792Z,20.60
2019-04-16T09:56:47.317Z,21.50
2019-04-16T09:59:37.646Z,22.00
2019-04-16T10:02:20.265Z,22.50
2019-04-16T10:04:50.586Z,22.40
2019-04-16T10:07:20.960Z,22.80
2019-04-16T10:09:54.388Z,22.80
2019-04-16T10:12:23.623Z,22.80
2019-04-16T10:14:53.908Z,23.10
2019-04-16T10:17:24.318Z,23.70
2019-04-16T10:19:54.779Z,23.50
2019-04-16T10:22:25.162Z,23.10
2019-04-16T10:25:12.878Z,23.10
2019-04-16T10:27:45.356Z,22.80
2019-04-16T10:30:19.712Z,23.10
2019-04-16T10:32:50.075Z,24.10
2019-04-16T10:35:20.772Z,25.30
2019-04-16T10:37:51.279Z,25.90
2019-04-16T10:40:39.216Z,26.30
2019-04-16T10:43:27.541Z,26.60
2019-04-16T10:46:19.942Z,26.20
2019-04-16T10:49:14.178Z,26.20
2019-04-16T10:52:06.753Z,26.50
2019-04-16T10:54:59.218Z,27.30
2019-04-16T10:57:41.644Z,26.80
2019-04-16T11:00:29.740Z,27.40
2019-04-16T11:03:19.278Z,28.40
2019-04-16T11:06:14.664Z,26.90
2019-04-16T11:08:45.137Z,26.30
2019-04-16T11:11:15.621Z,26.20
2019-04-16T11:13:59.340Z,25.90
2019-04-16T11:16:19.873Z,27.00
2019-04-16T11:18:50.274Z,27.00
2019-04-16T11:21:21.108Z,27.60
2019-04-16T11:23:51.603Z,27.70
2019-04-16T11:26:21.922Z,27.40
2019-04-16T11:28:52.342Z,26.00
2019-04-16T11:31:23.510Z,25.50
2019-04-16T11:33:53.764Z,26.30
2019-04-16T11:36:24.225Z,26.30
2019-04-16T11:38:54.617Z,26.50
2019-04-16T11:41:25.088Z,26.20
2019-04-16T11:43:55.492Z,26.80
2019-04-16T11:46:26.076Z,26.80
2019-04-16T11:48:56.393Z,26.70
2019-04-16T11:51:28.406Z,25.30
2019-04-16T11:53:58.920Z,25.40
2019-04-16T11:56:29.356Z,25.00
2019-04-16T11:58:59.767Z,24.70
2019-04-16T12:01:37.068Z,24.70
2019-04-16T12:04:18.548Z,24.20
2019-04-16T12:07:16.638Z,24.60
2019-04-16T12:10:04.581Z,25.70
2019-04-16T12:12:50.813Z,26.10
2019-04-16T12:15:36.615Z,24.90
2019-04-16T12:18:21.350Z,24.80
2019-04-16T12:21:19.527Z,24.70
2019-04-16T12:23:56.877Z,24.50
2019-04-16T12:26:47.637Z,24.10
2019-04-16T12:29:34.122Z,24.40
2019-04-16T12:32:26.894Z,25.80
2019-04-16T12:35:18.155Z,25.60
2019-04-16T12:38:11.944Z,25.60
2019-04-16T12:40:50.413Z,26.30
2019-04-16T12:43:42.541Z,27.80
2019-04-16T12:46:31.284Z,28.90
2019-04-16T12:49:29.413Z,29.10
2019-04-16T12:52:17.805Z,30.20
2019-04-16T12:55:16.273Z,28.90
2019-04-16T12:58:12.704Z,29.90
2019-04-16T13:01:05.238Z,31.20
2019-04-16T13:03:52.304Z,31.90
2019-04-16T13:06:32.127Z,32.30
2019-04-16T13:09:20.354Z,32.40
2019-04-16T13:12:22.116Z,31.50
2019-04-16T13:15:17.235Z,30.40
2019-04-16T13:18:15.587Z,31.20
2019-04-16T13:21:01.009Z,30.80
2019-04-16T13:23:39.221Z,28.40
2019-04-16T13:26:13.912Z,28.00
2019-04-16T13:28:44.533Z,28.30
2019-04-16T13:31:14.957Z,28.70
2019-04-16T13:33:46.114Z,28.90
2019-04-16T13:36:17.271Z,27.90
2019-04-16T13:38:53.181Z,27.60
2019-04-16T13:41:26.302Z,26.70
2019-04-16T13:44:00.414Z,25.80
2019-04-16T13:46:32.899Z,25.00
2019-04-16T13:49:24.390Z,24.70
2019-04-16T13:51:57.242Z,24.40
2019-04-16T13:54:44.992Z,23.70
2019-04-16T13:57:17.708Z,22.90
2019-04-16T14:00:06.946Z,22.50
2019-04-16T14:02:51.092Z,22.20
2019-04-16T14:05:21.765Z,22.10
2019-04-16T14:07:52.172Z,21.60
2019-04-16T14:10:22.984Z,21.70
2019-04-16T14:12:53.347Z,21.70
2019-04-16T14:15:32.443Z,21.40
2019-04-16T14:17:59.781Z,21.70
2019-04-16T14:20:29.767Z,22.00
2019-04-16T14:23:00.569Z,22.20
2019-04-16T14:25:31.000Z,22.30
2019-04-16T14:28:03.525Z,22.20
2019-04-16T14:30:42.866Z,21.90
2019-04-16T14:33:16.417Z,21.90
2019-04-16T14:35:46.799Z,21.90
2019-04-16T14:38:21.262Z,21.70
2019-04-16T14:40:51.716Z,21.50
2019-04-16T14:43:29.454Z,21.40
2019-04-16T14:46:00.175Z,20.90
2019-04-16T14:48:32.652Z,20.70
2019-04-16T14:51:03.087Z,20.20
2019-04-16T14:53:51.166Z,19.90
2019-04-16T14:56:40.872Z,19.80
2019-04-16T14:59:29.951Z,19.70
2019-04-16T15:02:09.497Z,19.40
2019-04-16T15:04:58.301Z,19.40
2019-04-16T15:07:39.167Z,19.20
2019-04-16T15:10:31.697Z,19.00
2019-04-16T15:13:21.071Z,18.90
2019-04-16T15:16:13.203Z,18.80
2019-04-16T15:19:01.757Z,18.90
2019-04-16T15:21:50.122Z,19.00
2019-04-16T15:24:39.417Z,19.00
2019-04-16T15:27:31.674Z,19.00
2019-04-16T15:30:16.151Z,19.20
2019-04-16T15:33:06.809Z,19.20
2019-04-16T15:35:43.735Z,19.10
2019-04-16T15:38:30.463Z,18.90
2019-04-16T15:41:17.601Z,19.00
2019-04-16T15:44:06.979Z,19.00
2019-04-16T15:47:00.231Z,19.20
2019-04-16T15:49:43.294Z,19.70
2019-04-16T15:52:35.761Z,20.30
2019-04-16T15:55:43.816Z,20.80
2019-04-16T15:58:45.328Z,21.60
2019-04-16T16:01:40.461Z,22.00
2019-04-16T16:04:14.219Z,22.40
2019-04-16T16:07:12.823Z,22.60
2019-04-16T16:09:59.722Z,22.60
2019-04-16T16:12:32.011Z,22.00
2019-04-16T16:15:07.639Z,21.50
2019-04-16T16:17:34.607Z,20.80
2019-04-16T16:20:09.671Z,19.90
2019-04-16T16:22:38.084Z,19.40
2019-04-16T16:25:08.919Z,19.10
2019-04-16T16:27:43.908Z,18.80
2019-04-16T16:30:14.379Z,18.60
2019-04-16T16:32:43.955Z,18.50
2019-04-16T16:35:16.965Z,18.40
2019-04-16T16:37:46.420Z,18.20
2019-04-16T16:40:16.860Z,18.10
2019-04-16T16:42:47.322Z,17.90
2019-04-16T16:45:19.463Z,17.90
2019-04-16T16:47:49.835Z,17.70
2019-04-16T16:50:20.401Z,17.60
2019-04-16T16:53:15.406Z,17.70
2019-04-16T16:55:48.481Z,17.50
2019-04-16T16:58:37.839Z,17.30
2019-04-16T17:01:25.869Z,17.20
2019-04-16T17:04:02.557Z,17.20
2019-04-16T17:06:32.948Z,17.20
2019-04-16T17:09:03.332Z,17.10
2019-04-16T17:11:33.707Z,17.10
2019-04-16T17:14:04.133Z,17.10
2019-04-16T17:16:34.729Z,16.90
2019-04-16T17:19:05.000Z,16.90
2019-04-16T17:21:35.455Z,16.90
2019-04-16T17:24:05.910Z,16.80
2019-04-16T17:26:37.372Z,16.60
2019-04-16T17:29:07.891Z,16.50
2019-04-16T17:31:38.371Z,16.40
2019-04-16T17:34:08.903Z,16.40
2019-04-16T17:36:39.326Z,16.30
2019-04-16T17:39:10.897Z,16.30
2019-04-16T17:41:50.683Z,16.10
2019-04-16T17:44:38.077Z,15.90
2019-04-16T17:47:32.116Z,15.80
2019-04-16T17:50:02.498Z,15.80
2019-04-16T17:52:48.475Z,15.70
2019-04-16T17:55:32.922Z,15.50
2019-04-16T17:58:12.328Z,15.30
2019-04-16T18:01:00.145Z,15.00
2019-04-16T18:03:52.717Z,15.10
2019-04-16T18:06:49.292Z,15.00
2019-04-16T18:09:30.636Z,15.00
2019-04-16T18:12:25.842Z,14.90
2019-04-16T18:15:16.897Z,14.70
2019-04-16T18:18:01.653Z,14.60
2019-04-16T18:21:02.365Z,14.50
2019-04-16T18:23:52.061Z,14.40
2019-04-16T18:26:37.529Z,14.10
2019-04-16T18:29:15.371Z,14.00
2019-04-16T18:32:21.177Z,13.90
2019-04-16T18:34:59.127Z,13.80
2019-04-16T18:37:39.704Z,13.70
2019-04-16T18:40:24.145Z,13.80
2019-04-16T18:43:19.681Z,13.70
2019-04-16T18:46:09.071Z,13.70
2019-04-16T18:48:44.614Z,13.70
2019-04-16T18:51:13.400Z,13.80
2019-04-16T18:53:44.175Z,13.70
2019-04-16T18:56:14.646Z,13.70
2019-04-16T18:58:45.254Z,13.70
2019-04-16T19:01:24.683Z,13.70
2019-04-16T19:03:53.219Z,13.60
2019-04-16T19:06:23.732Z,13.50
2019-04-16T19:08:54.440Z,13.40
2019-04-16T19:11:24.851Z,13.30
2019-04-16T19:13:55.329Z,13.20
2019-04-16T19:16:25.798Z,13.20
2019-04-16T19:18:56.217Z,13.10
2019-04-16T19:21:26.713Z,13.00
2019-04-16T19:23:57.169Z,12.90
2019-04-16T19:26:30.221Z,12.70
2019-04-16T19:28:59.821Z,12.60
2019-04-16T19:31:30.192Z,12.60
2019-04-16T19:34:00.504Z,12.50
2019-04-16T19:36:30.974Z,12.30
2019-04-16T19:39:05.137Z,12.20
2019-04-16T19:41:33.597Z,12.00
2019-04-16T19:44:07.182Z,11.90
2019-04-16T19:46:36.210Z,11.70
2019-04-16T19:49:06.689Z,11.70
2019-04-16T19:51:38.081Z,11.60
2019-04-16T19:54:09.458Z,11.50
2019-04-16T19:56:39.810Z,11.40
2019-04-16T19:59:10.331Z,11.20
2019-04-16T20:01:40.765Z,11.20
2019-04-16T20:04:11.322Z,11.10
2019-04-16T20:06:41.700Z,11.10
2019-04-16T20:09:12.099Z,11.00
2019-04-16T20:11:42.514Z,10.80
2019-04-16T20:14:12.938Z,10.80
2019-04-16T20:16:43.411Z,10.80
2019-04-16T20:19:13.885Z,10.60
2019-04-16T20:21:44.326Z,10.60
2019-04-16T20:24:14.690Z,10.60
2019-04-16T20:26:45.118Z,10.40
2019-04-16T20:29:15.414Z,10.30
2019-04-16T20:31:45.943Z,10.30
2019-04-16T20:34:18.107Z,10.30
2019-04-16T20:36:48.498Z,10.30
2019-04-16T20:39:19.006Z,10.20
2019-04-16T20:41:52.976Z,10.20
2019-04-16T20:44:22.113Z,10.30
2019-04-16T20:46:52.487Z,10.20
2019-04-16T20:49:22.872Z,10.20
2019-04-16T20:51:56.604Z,10.00
2019-04-16T20:54:25.416Z,9.90
2019-04-16T20:56:55.808Z,9.80
2019-04-16T20:59:26.249Z,9.80
2019-04-16T21:01:56.734Z,9.70
2019-04-16T21:04:27.204Z,9.50
2019-04-16T21:06:57.833Z,9.40
2019-04-16T21:09:29.890Z,9.50
2019-04-16T21:12:00.510Z,9.50
2019-04-16T21:14:30.940Z,9.50
2019-04-16T21:17:05.988Z,9.30
2019-04-16T21:19:47.603Z,9.30
2019-04-16T21:22:19.900Z,9.30
2019-04-16T21:24:50.481Z,9.20
2019-04-16T21:27:20.919Z,9.20
2019-04-16T21:29:51.310Z,9.30
2019-04-16T21:32:39.662Z,9.30
2019-04-16T21:35:18.253Z,9.30
2019-04-16T21:38:22.770Z,9.30
2019-04-16T21:40:56.374Z,9.30
2019-04-16T21:43:25.384Z,9.40
2019-04-16T21:45:55.791Z,9.50
2019-04-16T21:48:27.010Z,9.80
2019-04-16T21:50:58.183Z,10.00
2019-04-16T21:53:28.857Z,10.30
2019-04-16T21:55:59.384Z,10.40
2019-04-16T21:58:29.816Z,10.40
2019-04-16T22:01:12.438Z,10.50
2019-04-16T22:03:44.233Z,10.60
2019-04-16T22:06:19.915Z,10.60
2019-04-16T22:08:46.916Z,10.60
2019-04-16T22:11:17.369Z,10.70
2019-04-16T22:13:50.595Z,10.70
2019-04-16T22:16:20.043Z,10.60
2019-04-16T22:18:50.490Z,10.80
2019-04-16T22:21:20.939Z,10.70
2019-04-16T22:23:51.408Z,10.70
2019-04-16T22:26:21.838Z,10.60
2019-04-16T22:28:52.239Z,10.60
2019-04-16T22:31:23.746Z,10.50
2019-04-16T22:33:54.791Z,10.50
2019-04-16T22:36:25.208Z,10.40
2019-04-16T22:39:01.406Z,10.40
2019-04-16T22:41:47.272Z,10.40
2019-04-16T22:44:36.490Z,10.30
2019-04-16T22:47:13.157Z,10.20
2019-04-16T22:49:43.682Z,10.20
2019-04-16T22:52:14.139Z,10.20
2019-04-16T22:54:44.593Z,10.10
2019-04-16T22:57:16.292Z,10.10
2019-04-16T22:59:46.670Z,10.10
2019-04-16T23:02:23.251Z,10.10
2019-04-16T23:04:54.755Z,10.00
2019-04-16T23:07:26.006Z,10.00
2019-04-16T23:09:56.481Z,9.90
2019-04-16T23:12:28.138Z,9.80
2019-04-16T23:14:58.980Z,9.80
2019-04-16T23:17:29.404Z,9.90
2019-04-16T23:19:59.853Z,9.90
2019-04-16T23:22:31.247Z,9.90
2019-04-16T23:25:01.787Z,9.90
2019-04-16T23:27:37.171Z,9.80
2019-04-16T23:30:05.114Z,9.80
2019-04-16T23:32:35.591Z,9.70
2019-04-16T23:35:09.807Z,9.70
2019-04-16T23:37:38.636Z,9.60
2019-04-16T23:40:11.107Z,9.50
2019-04-16T23:42:51.187Z,9.60
2019-04-16T23:45:49.663Z,9.50
2019-04-16T23:48:48.573Z,9.50
2019-04-16T23:51:30.584Z,9.50
2019-04-16T23:54:11.076Z,9.50
2019-04-16T23:56:49.681Z,9.50
2019-04-16T23:59:23.464Z,9.50
